createdAt,value
2022-11-16T00:01:12.885Z,81.47
2022-11-16T00:03:59.931Z,89.03
2022-11-16T00:06:46.345Z,78.93
2022-11-16T00:09:32.715Z,81.72
2022-11-16T00:12:17.986Z,82.25
2022-11-16T00:15:04.362Z,82.90
2022-11-16T00:17:49.838Z,75.15
2022-11-16T00:20:37.913Z,78.22
2022-11-16T00:23:24.240Z,74.40
2022-11-16T00:26:12.662Z,71.80
2022-11-16T00:28:57.817Z,74.47
2022-11-16T00:31:44.404Z,78.60
2022-11-16T00:34:30.088Z,74.57
2022-11-16T00:37:15.206Z,81.95
2022-11-16T00:40:00.620Z,73.82
2022-11-16T00:42:46.011Z,68.82
2022-11-16T00:45:31.321Z,75.18
2022-11-16T00:48:16.466Z,67.90
2022-11-16T00:51:01.650Z,61.88
2022-11-16T00:53:47.423Z,70.97
2022-11-16T00:56:32.900Z,71.70
2022-11-16T00:59:18.044Z,61.33
2022-11-16T01:02:03.633Z,63.35
2022-11-16T01:04:48.878Z,62.95
2022-11-16T01:07:38.930Z,66.32
2022-11-16T01:10:26.034Z,65.03
2022-11-16T01:13:11.734Z,70.40
2022-11-16T01:15:56.867Z,68.45
2022-11-16T01:18:43.842Z,67.13
2022-11-16T01:21:29.097Z,69.65
2022-11-16T01:24:14.679Z,67.75
2022-11-16T01:27:00.024Z,67.88
2022-11-16T01:29:49.314Z,68.57
2022-11-16T01:32:35.780Z,68.57
2022-11-16T01:35:21.843Z,62.75
2022-11-16T01:38:07.274Z,63.25
2022-11-16T01:40:53.380Z,65.88
2022-11-16T01:44:03.570Z,66.45
2022-11-16T01:46:55.545Z,70.22
2022-11-16T01:49:55.150Z,62.72
2022-11-16T01:52:53.989Z,68.57
2022-11-16T01:55:43.180Z,66.93
2022-11-16T01:58:35.189Z,65.18
2022-11-16T02:01:31.549Z,69.70
2022-11-16T02:04:19.485Z,65.90
2022-11-16T02:07:23.481Z,66.72
2022-11-16T02:10:55.747Z,69.95
2022-11-16T02:14:13.245Z,69.95
2022-11-16T02:17:19.618Z,75.70
2022-11-16T02:20:12.016Z,69.20
2022-11-16T02:23:09.495Z,70.40
2022-11-16T02:26:38.008Z,70.32
2022-11-16T02:29:37.862Z,70.45
2022-11-16T02:35:25.439Z,64.95
2022-11-16T02:38:32.714Z,65.60
2022-11-16T02:41:22.178Z,69.30
2022-11-16T02:44:15.656Z,64.70
2022-11-16T02:47:11.349Z,67.43
2022-11-16T02:50:02.109Z,70.35
2022-11-16T02:52:47.584Z,70.22
2022-11-16T02:55:35.990Z,66.82
2022-11-16T02:58:25.317Z,72.40
2022-11-16T03:01:18.265Z,63.35
2022-11-16T03:04:12.001Z,70.35
2022-11-16T03:07:01.929Z,66.53
2022-11-16T03:09:50.133Z,72.40
2022-11-16T03:12:37.998Z,68.03
2022-11-16T03:15:24.063Z,69.47
2022-11-16T03:18:12.238Z,69.38
2022-11-16T03:21:06.825Z,70.70
2022-11-16T03:23:52.242Z,76.57
2022-11-16T03:26:51.090Z,69.63
2022-11-16T03:30:11.379Z,70.15
2022-11-16T03:33:07.258Z,69.97
2022-11-16T03:36:00.536Z,70.57
2022-11-16T03:38:50.781Z,72.15
2022-11-16T03:41:39.898Z,68.30
2022-11-16T03:44:26.694Z,67.25
2022-11-16T03:47:13.355Z,73.80
2022-11-16T03:49:58.989Z,77.25
2022-11-16T03:52:44.332Z,77.07
2022-11-16T03:55:31.091Z,75.60
2022-11-16T03:58:18.549Z,73.75
2022-11-16T04:01:04.441Z,77.53
2022-11-16T04:03:49.621Z,82.45
2022-11-16T04:06:56.196Z,82.22
2022-11-16T04:10:00.415Z,87.95
2022-11-16T04:13:04.564Z,86.32
2022-11-16T04:16:08.256Z,91.65
2022-11-16T04:19:11.824Z,95.95
2022-11-16T04:22:32.222Z,92.25
2022-11-16T04:25:23.176Z,101.65
2022-11-16T04:28:16.237Z,90.93
2022-11-16T04:31:25.749Z,99.03
2022-11-16T04:34:38.242Z,99.53
2022-11-16T04:37:42.522Z,101.38
2022-11-16T04:40:29.493Z,106.75
2022-11-16T04:43:15.567Z,100.53
2022-11-16T04:46:41.319Z,102.38
2022-11-16T04:49:27.148Z,104.30
2022-11-16T04:52:14.856Z,110.25
2022-11-16T04:55:01.820Z,105.43
2022-11-16T04:57:47.769Z,106.07
2022-11-16T05:00:33.810Z,100.93
2022-11-16T05:03:19.487Z,109.30
2022-11-16T05:06:05.327Z,104.78
2022-11-16T05:08:51.432Z,109.68
2022-11-16T05:11:36.779Z,102.93
2022-11-16T05:14:22.097Z,111.82
2022-11-16T05:17:08.423Z,117.45
2022-11-16T05:20:12.887Z,121.55
2022-11-16T05:23:05.794Z,123.10
2022-11-16T05:25:55.077Z,113.57
2022-11-16T05:28:41.074Z,110.45
2022-11-16T05:31:28.867Z,121.90
2022-11-16T05:34:14.930Z,119.30
2022-11-16T05:37:00.926Z,121.47
2022-11-16T05:39:48.199Z,122.07
2022-11-16T05:42:35.019Z,141.18
2022-11-16T05:45:21.303Z,129.15
2022-11-16T05:48:07.628Z,121.93
2022-11-16T05:50:58.609Z,120.78
2022-11-16T05:53:44.652Z,121.03
2022-11-16T05:56:34.932Z,126.97
2022-11-16T05:59:22.904Z,123.18
2022-11-16T06:02:11.546Z,131.25
2022-11-16T06:04:57.087Z,128.70
2022-11-16T06:07:42.500Z,130.63
2022-11-16T06:10:27.514Z,127.50
2022-11-16T06:13:13.061Z,118.72
2022-11-16T06:15:59.581Z,119.38
2022-11-16T06:18:47.310Z,136.75
2022-11-16T06:21:34.219Z,138.52
2022-11-16T06:24:22.244Z,131.63
2022-11-16T06:27:07.432Z,137.15
2022-11-16T06:29:54.436Z,125.03
2022-11-16T06:32:40.271Z,134.35
2022-11-16T06:35:26.382Z,127.85
2022-11-16T06:38:18.229Z,125.82
2022-11-16T06:41:05.127Z,124.93
2022-11-16T06:43:55.862Z,131.55
2022-11-16T06:46:47.049Z,134.85
2022-11-16T06:49:32.191Z,135.65
2022-11-16T06:52:20.852Z,123.95
2022-11-16T06:55:06.895Z,129.80
2022-11-16T06:57:54.153Z,125.25
2022-11-16T07:00:39.773Z,143.18
2022-11-16T07:03:26.869Z,131.95
2022-11-16T07:06:13.646Z,127.65
2022-11-16T07:09:05.968Z,133.13
2022-11-16T07:11:51.383Z,133.55
2022-11-16T07:14:38.421Z,135.40
2022-11-16T07:17:26.595Z,138.43
2022-11-16T07:20:12.199Z,146.07
2022-11-16T07:23:02.846Z,141.75
2022-11-16T07:25:47.931Z,141.35
2022-11-16T07:28:47.749Z,139.13
2022-11-16T07:31:34.589Z,140.45
2022-11-16T07:34:42.403Z,149.30
2022-11-16T07:37:31.775Z,139.75
2022-11-16T07:40:17.282Z,142.90
2022-11-16T07:43:03.933Z,145.13
2022-11-16T07:46:21.321Z,145.15
2022-11-16T07:49:09.872Z,152.27
2022-11-16T07:52:10.685Z,149.02
2022-11-16T07:55:16.182Z,144.43
2022-11-16T07:58:03.316Z,142.20
2022-11-16T08:00:49.211Z,157.85
2022-11-16T08:03:35.737Z,135.80
2022-11-16T08:06:25.857Z,133.82
2022-11-16T08:09:13.857Z,135.25
2022-11-16T08:11:59.833Z,143.13
2022-11-16T08:14:45.402Z,139.70
2022-11-16T08:17:32.155Z,133.98
2022-11-16T08:20:18.117Z,139.35
2022-11-16T08:23:03.490Z,135.73
2022-11-16T08:25:52.648Z,134.32
2022-11-16T08:28:38.188Z,127.78
2022-11-16T08:31:26.623Z,126.90
2022-11-16T08:34:17.505Z,141.60
2022-11-16T08:37:08.316Z,122.20
2022-11-16T08:40:03.108Z,121.70
2022-11-16T08:42:51.653Z,126.07
2022-11-16T08:45:38.382Z,119.28
2022-11-16T08:48:23.927Z,116.72
2022-11-16T08:51:17.835Z,124.20
2022-11-16T08:54:09.437Z,117.30
2022-11-16T08:56:57.263Z,116.05
2022-11-16T08:59:42.766Z,112.68
2022-11-16T09:02:31.812Z,120.07
2022-11-16T09:05:17.160Z,112.93
2022-11-16T09:08:02.538Z,115.00
2022-11-16T09:10:48.121Z,109.25
2022-11-16T09:13:33.631Z,113.15
2022-11-16T09:16:20.907Z,104.43
2022-11-16T09:19:06.172Z,104.93
2022-11-16T09:21:51.567Z,99.70
2022-11-16T09:24:37.209Z,94.55
2022-11-16T09:27:22.714Z,97.35
2022-11-16T09:30:09.369Z,98.40
2022-11-16T09:32:54.952Z,88.93
2022-11-16T09:35:40.431Z,81.68
2022-11-16T09:38:40.313Z,84.65
2022-11-16T09:42:02.680Z,70.40
2022-11-16T09:45:08.421Z,81.40
2022-11-16T09:47:59.361Z,68.20
2022-11-16T09:51:02.682Z,70.13
2022-11-16T09:53:58.463Z,48.85
2022-11-16T09:56:47.524Z,43.65
2022-11-16T09:59:40.946Z,36.50
2022-11-16T10:02:38.941Z,43.70
2022-11-16T10:05:31.334Z,41.53
2022-11-16T10:08:48.449Z,41.42
2022-11-16T10:11:55.114Z,44.50
2022-11-16T10:15:01.669Z,43.58
2022-11-16T10:18:18.465Z,45.95
2022-11-16T10:21:23.539Z,45.25
2022-11-16T10:24:25.845Z,42.97
2022-11-16T10:28:17.304Z,49.47
2022-11-16T10:31:18.079Z,42.90
2022-11-16T10:34:08.889Z,53.05
2022-11-16T10:36:58.589Z,48.95
2022-11-16T10:39:46.892Z,45.63
2022-11-16T10:42:37.153Z,48.55
2022-11-16T10:45:30.341Z,50.15
2022-11-16T10:48:42.509Z,51.13
2022-11-16T10:51:27.769Z,48.33
2022-11-16T10:54:17.976Z,49.05
2022-11-16T10:57:13.939Z,50.22
2022-11-16T10:59:59.603Z,51.70
2022-11-16T11:02:48.440Z,49.08
2022-11-16T11:05:36.127Z,48.65
2022-11-16T11:08:31.470Z,53.10
2022-11-16T11:11:40.722Z,51.38
2022-11-16T11:14:26.107Z,52.80
2022-11-16T11:17:14.104Z,52.58
2022-11-16T11:20:16.933Z,45.03
2022-11-16T11:23:12.361Z,48.33
2022-11-16T11:26:00.186Z,49.03
2022-11-16T11:28:49.272Z,50.72
2022-11-16T11:31:46.270Z,46.23
2022-11-16T11:34:41.707Z,56.00
2022-11-16T11:37:31.684Z,53.33
2022-11-16T11:43:06.400Z,49.92
2022-11-16T11:46:04.058Z,51.67
2022-11-16T11:49:04.701Z,55.65
2022-11-16T11:51:52.081Z,50.20
2022-11-16T11:54:47.615Z,53.00
2022-11-16T11:57:38.770Z,53.95
2022-11-16T12:00:25.995Z,55.35
2022-11-16T12:03:38.374Z,52.25
2022-11-16T12:06:38.732Z,52.17
2022-11-16T12:09:46.178Z,55.60
2022-11-16T12:12:59.458Z,58.72
2022-11-16T12:15:59.197Z,58.95
2022-11-16T12:18:53.693Z,62.35
2022-11-16T12:21:59.219Z,54.53
2022-11-16T12:25:18.761Z,55.90
2022-11-16T12:28:25.911Z,51.90
2022-11-16T12:31:39.193Z,58.25
2022-11-16T12:35:00.745Z,59.22
2022-11-16T12:38:15.302Z,59.53
2022-11-16T12:41:39.897Z,60.13
2022-11-16T12:44:50.896Z,50.28
2022-11-16T12:48:03.559Z,47.45
2022-11-16T12:51:04.048Z,55.13
2022-11-16T12:54:15.842Z,49.95
2022-11-16T12:57:26.552Z,48.70
2022-11-16T13:00:16.736Z,67.95
2022-11-16T13:03:17.905Z,52.35
2022-11-16T13:06:08.445Z,49.42
2022-11-16T13:09:11.016Z,57.28
2022-11-16T13:12:14.064Z,44.80
2022-11-16T13:15:02.847Z,50.17
2022-11-16T13:17:55.008Z,48.38
2022-11-16T13:20:45.926Z,49.08
2022-11-16T13:23:31.288Z,53.33
2022-11-16T13:26:19.810Z,52.75
2022-11-16T13:29:34.025Z,51.83
2022-11-16T13:32:39.493Z,47.55
2022-11-16T13:35:25.432Z,44.80
2022-11-16T13:38:13.774Z,51.88
2022-11-16T13:41:33.510Z,48.50
2022-11-16T13:44:20.059Z,41.20
2022-11-16T13:47:30.368Z,43.10
2022-11-16T13:50:23.086Z,42.88
2022-11-16T13:54:10.862Z,48.33
2022-11-16T13:56:25.614Z,44.22
2022-11-16T13:59:16.686Z,40.45
2022-11-16T14:02:23.636Z,42.00
2022-11-16T14:05:12.069Z,39.83
2022-11-16T14:07:57.758Z,37.60
2022-11-16T14:10:48.982Z,43.40
2022-11-16T14:13:37.464Z,34.72
2022-11-16T14:16:22.963Z,39.25
2022-11-16T14:19:44.256Z,38.80
2022-11-16T14:22:52.578Z,38.28
2022-11-16T14:25:40.379Z,45.90
2022-11-16T14:28:44.945Z,40.97
2022-11-16T14:31:45.150Z,38.63
2022-11-16T14:34:41.740Z,37.70
2022-11-16T14:37:30.414Z,35.92
2022-11-16T14:40:18.412Z,39.42
2022-11-16T14:43:17.045Z,40.05
2022-11-16T14:46:08.485Z,39.58
2022-11-16T14:48:56.418Z,42.33
2022-11-16T14:51:49.108Z,36.13
2022-11-16T14:54:40.488Z,36.80
2022-11-16T14:57:26.280Z,36.85
2022-11-16T15:00:20.131Z,42.88
2022-11-16T15:03:06.526Z,38.63
2022-11-16T15:05:51.809Z,35.38
2022-11-16T15:08:42.086Z,40.28
2022-11-16T15:11:52.224Z,44.80
2022-11-16T15:14:44.353Z,39.92
2022-11-16T15:17:33.217Z,42.63
2022-11-16T15:20:23.767Z,38.60
2022-11-16T15:23:15.153Z,38.92
2022-11-16T15:26:02.318Z,38.70
2022-11-16T15:28:50.286Z,33.85
2022-11-16T15:31:36.983Z,36.15
2022-11-16T15:34:22.515Z,39.63
2022-11-16T15:37:12.156Z,36.70
2022-11-16T15:40:09.801Z,36.75
2022-11-16T15:43:00.323Z,33.03
2022-11-16T15:45:46.649Z,34.05
2022-11-16T15:48:33.478Z,34.05
2022-11-16T15:51:24.240Z,34.60
2022-11-16T15:54:30.648Z,33.13
2022-11-16T15:57:15.925Z,29.52
2022-11-16T16:00:01.418Z,29.65
2022-11-16T16:02:46.876Z,32.20
2022-11-16T16:05:39.828Z,31.13
2022-11-16T16:08:37.389Z,27.48
2022-11-16T16:11:26.779Z,25.35
2022-11-16T16:14:24.544Z,34.50
2022-11-16T16:17:20.803Z,26.27
2022-11-16T16:20:07.562Z,23.17
2022-11-16T16:22:54.443Z,23.73
2022-11-16T16:25:39.761Z,25.73
2022-11-16T16:28:25.028Z,30.17
2022-11-16T16:31:11.376Z,28.27
2022-11-16T16:33:56.805Z,30.85
2022-11-16T16:36:42.131Z,27.50
2022-11-16T16:39:27.472Z,26.13
2022-11-16T16:42:15.628Z,27.25
2022-11-16T16:45:02.176Z,26.52
2022-11-16T16:47:47.849Z,27.48
2022-11-16T16:50:33.521Z,30.42
2022-11-16T16:53:18.844Z,29.48
2022-11-16T16:56:04.502Z,25.25
2022-11-16T16:58:50.040Z,27.15
2022-11-16T17:01:35.749Z,28.70
2022-11-16T17:04:21.540Z,29.63
2022-11-16T17:07:07.181Z,28.20
2022-11-16T17:09:52.633Z,27.75
2022-11-16T17:12:37.875Z,22.73
2022-11-16T17:15:24.067Z,26.60
2022-11-16T17:18:09.365Z,30.55
2022-11-16T17:20:54.699Z,23.70
2022-11-16T17:23:40.012Z,32.92
2022-11-16T17:26:29.095Z,30.38
2022-11-16T17:29:14.953Z,29.92
2022-11-16T17:32:00.699Z,32.25
2022-11-16T17:34:46.223Z,30.10
2022-11-16T17:37:32.019Z,32.35
2022-11-16T17:40:17.588Z,29.80
2022-11-16T17:43:03.277Z,27.77
2022-11-16T17:45:48.657Z,28.58
2022-11-16T17:48:35.297Z,26.17
2022-11-16T17:51:23.724Z,28.40
2022-11-16T17:54:09.087Z,23.75
2022-11-16T17:56:54.713Z,25.75
2022-11-16T17:59:39.789Z,26.02
2022-11-16T18:02:25.020Z,26.58
2022-11-16T18:05:10.184Z,30.05
2022-11-16T18:07:57.877Z,22.70
2022-11-16T18:10:43.249Z,26.65
2022-11-16T18:13:28.326Z,24.77
2022-11-16T18:16:16.535Z,23.80
2022-11-16T18:19:04.385Z,24.17
2022-11-16T18:21:49.478Z,20.50
2022-11-16T18:24:34.976Z,20.90
2022-11-16T18:27:20.295Z,23.30
2022-11-16T18:30:05.996Z,21.08
2022-11-16T18:32:51.145Z,20.45
2022-11-16T18:35:36.102Z,23.25
2022-11-16T18:38:22.076Z,20.58
2022-11-16T18:41:13.506Z,18.08
2022-11-16T18:44:01.231Z,18.73
2022-11-16T18:46:46.660Z,17.38
2022-11-16T18:49:32.043Z,18.05
2022-11-16T18:52:17.109Z,17.55
2022-11-16T18:55:02.481Z,14.65
2022-11-16T18:57:47.769Z,17.10
2022-11-16T19:00:33.241Z,21.00
2022-11-16T19:03:18.705Z,14.57
2022-11-16T19:06:07.529Z,15.48
2022-11-16T19:08:58.585Z,15.98
2022-11-16T19:11:43.705Z,14.75
2022-11-16T19:14:29.019Z,18.05
2022-11-16T19:17:14.398Z,14.02
2022-11-16T19:19:59.768Z,17.48
2022-11-16T19:22:44.823Z,15.13
2022-11-16T19:25:30.248Z,17.15
2022-11-16T19:28:15.427Z,13.13
2022-11-16T19:31:08.259Z,14.00
2022-11-16T19:33:59.788Z,14.85
2022-11-16T19:36:44.889Z,14.25
2022-11-16T19:39:30.403Z,12.93
2022-11-16T19:42:15.754Z,13.05
2022-11-16T19:45:01.242Z,18.92
2022-11-16T19:47:46.655Z,11.50
2022-11-16T19:50:31.753Z,13.30
2022-11-16T19:53:17.018Z,13.32
2022-11-16T19:56:03.592Z,14.82
2022-11-16T19:58:49.117Z,12.95
2022-11-16T20:01:34.590Z,11.88
2022-11-16T20:04:19.750Z,13.38
2022-11-16T20:07:07.364Z,14.18
2022-11-16T20:09:54.525Z,11.73
2022-11-16T20:12:39.590Z,13.63
2022-11-16T20:15:25.665Z,14.93
2022-11-16T20:18:10.871Z,17.38
2022-11-16T20:21:00.894Z,12.18
2022-11-16T20:26:33.406Z,14.13
2022-11-16T20:29:19.201Z,14.60
2022-11-16T20:32:04.579Z,12.77
2022-11-16T20:34:49.761Z,14.35
2022-11-16T20:37:35.018Z,12.70
2022-11-16T20:40:20.575Z,14.57
2022-11-16T20:43:06.043Z,13.00
2022-11-16T20:45:52.630Z,12.52
2022-11-16T20:48:39.338Z,16.83
2022-11-16T20:51:24.785Z,15.02
2022-11-16T20:54:10.072Z,12.73
2022-11-16T20:56:55.612Z,15.68
2022-11-16T20:59:40.866Z,14.30
2022-11-16T21:02:26.014Z,11.98
2022-11-16T21:05:13.577Z,15.93
2022-11-16T21:07:59.481Z,16.00
2022-11-16T21:10:45.461Z,14.13
2022-11-16T21:13:49.221Z,13.95
2022-11-16T21:16:34.709Z,13.75
2022-11-16T21:19:19.826Z,14.35
2022-11-16T21:22:05.219Z,16.30
2022-11-16T21:24:50.644Z,15.57
2022-11-16T21:27:36.061Z,15.95
2022-11-16T21:30:21.653Z,13.40
2022-11-16T21:33:06.743Z,15.27
2022-11-16T21:35:54.260Z,13.23
2022-11-16T21:38:39.484Z,16.92
2022-11-16T21:41:25.746Z,13.15
2022-11-16T21:44:11.342Z,13.05
2022-11-16T21:46:56.901Z,15.93
2022-11-16T21:50:08.328Z,13.20
2022-11-16T21:52:48.207Z,13.48
2022-11-16T21:55:41.543Z,14.48
2022-11-16T21:58:27.430Z,12.40
2022-11-16T22:01:17.375Z,14.85
2022-11-16T22:04:20.988Z,14.43
2022-11-16T22:07:24.826Z,12.40
2022-11-16T22:10:12.933Z,15.25
2022-11-16T22:13:03.411Z,13.70
2022-11-16T22:15:56.325Z,14.55
2022-11-16T22:18:42.206Z,13.35
2022-11-16T22:21:29.738Z,14.70
2022-11-16T22:24:19.361Z,12.27
2022-11-16T22:27:27.201Z,14.23
2022-11-16T22:30:12.662Z,15.15
2022-11-16T22:32:57.916Z,14.48
2022-11-16T22:35:45.649Z,15.95
2022-11-16T22:38:31.314Z,15.25
2022-11-16T22:41:16.438Z,16.38
2022-11-16T22:44:04.443Z,13.63
2022-11-16T22:46:52.654Z,14.73
2022-11-16T22:49:41.219Z,12.27
2022-11-16T22:52:26.722Z,15.07
2022-11-16T22:55:12.377Z,14.52
2022-11-16T22:57:57.542Z,13.50
2022-11-16T23:00:42.962Z,11.18
2022-11-16T23:03:29.148Z,13.90
2022-11-16T23:06:15.060Z,12.85
2022-11-16T23:09:00.285Z,13.75
2022-11-16T23:12:03.899Z,13.82
2022-11-16T23:15:07.867Z,12.27
2022-11-16T23:17:53.226Z,14.60
2022-11-16T23:20:57.423Z,13.02
2022-11-16T23:24:01.246Z,13.25
2022-11-16T23:27:05.118Z,16.25
2022-11-16T23:29:50.289Z,14.70
2022-11-16T23:32:35.706Z,17.67
2022-11-16T23:35:21.292Z,14.93
2022-11-16T23:38:07.511Z,17.02
2022-11-16T23:40:53.863Z,15.93
2022-11-16T23:43:57.837Z,15.52
2022-11-16T23:46:42.894Z,14.98
2022-11-16T23:49:27.741Z,16.52
2022-11-16T23:52:13.560Z,14.98
2022-11-16T23:54:59.034Z,15.05
2022-11-16T23:57:44.547Z,14.57
